Pirauba, Brazil
Current Conditions -  °F | °C
As of 7:00 PM on Saturday 25 Oct 2014 (Local Time) from SBJF Reporting Station
Overcast Overcast  
Wind Chill: 66°   Ceiling: 6000
Heat Index: 66°   Visibility: 5mi
Dew Point: 64°   Wind: 6mph
Humidity: 94%   Direction: 280°W
Pressure: 30.03"   Gusts: NA
Location:  21.28°S, 43.03°W
Report Text: SBJF 252100Z 28005KT 8000 FEW030 OVC060 19/18 Q1017
Loading
Personal Weather Stations






























Interactive Weather Map
Tropical Storm Tracking
New forecast layout! Learn more

10-Day Weather Forecast

Advertisements
Track Severe Weather on mobile